Terminal Aerodrome Forecast
Issued by NWS

Home | Current Version | Previous Version | Text Only | Print | Product List | Glossary On
Versions: 1 2 3 4 5 6 7 8 9 10 11 12 13 14 15 16 17 18 19
000
FTUS41 KBOX 290842 AAA
TAFACK
TAF AMD
KACK 290842Z 2909/3006 10014KT P6SM OVC008
     FM291500 09018G25KT 5SM -RA BR BKN008 OVC050
     FM291700 06018KT 2SM -RA BR SCT010 OVC035
     FM292300 04013KT 4SM BR OVC050
     FM300500 03010KT 4SM BR BKN008=

USA.gov is the U.S. government's official web portal to all federal, state and local government web resources and services.